sensor_id;sensor_type;location;lat;lon;timestamp;P1;P4;P2;P0;N10;N4;N25;N1;N05;TS
73616;SPS30;61913;52.312;4.858;2022-09-27T00:00:31;2.21;1.95;1.49;0.85;6.90;6.87;6.75;6.12;4.38;0.85
73616;SPS30;61913;52.312;4.858;2022-09-27T00:02:59;2.33;2.05;1.55;0.88;7.08;7.05;6.92;6.25;4.42;0.87
73616;SPS30;61913;52.312;4.858;2022-09-27T00:05:26;2.31;2.03;1.53;0.86;6.93;6.89;6.77;6.10;4.29;0.87
73616;SPS30;61913;52.312;4.858;2022-09-27T00:07:53;2.08;1.83;1.38;0.77;6.25;6.22;6.11;5.50;3.87;0.87
73616;SPS30;61913;52.312;4.858;2022-09-27T00:10:20;1.81;1.59;1.20;0.66;5.37;5.34;5.24;4.71;3.30;0.88
73616;SPS30;61913;52.312;4.858;2022-09-27T00:12:46;2.03;1.79;1.34;0.74;6.03;6.00;5.89;5.30;3.71;0.88
73616;SPS30;61913;52.312;4.858;2022-09-27T00:15:13;2.42;2.13;1.60;0.89;7.17;7.13;7.00;6.29;4.40;0.87
73616;SPS30;61913;52.312;4.858;2022-09-27T00:17:40;2.30;2.01;1.50;0.81;6.55;6.52;6.39;5.70;3.91;0.89
73616;SPS30;61913;52.312;4.858;2022-09-27T00:20:07;2.19;1.92;1.42;0.76;6.20;6.17;6.04;5.39;3.69;0.90
73616;SPS30;61913;52.312;4.858;2022-09-27T00:22:35;2.52;2.21;1.64;0.88;7.16;7.13;6.98;6.23;4.27;0.90
73616;SPS30;61913;52.312;4.858;2022-09-27T00:25:02;2.95;2.59;1.93;1.04;8.46;8.41;8.25;7.37;5.07;0.89
73616;SPS30;61913;52.312;4.858;2022-09-27T00:27:31;2.31;2.02;1.51;0.82;6.65;6.62;6.49;5.81;4.01;0.89
73616;SPS30;61913;52.312;4.858;2022-09-27T00:29:57;2.11;1.86;1.40;0.78;6.32;6.29;6.17;5.56;3.91;0.87
73616;SPS30;61913;52.312;4.858;2022-09-27T00:32:24;2.09;1.84;1.39;0.78;6.34;6.31;6.20;5.60;3.96;0.86
73616;SPS30;61913;52.312;4.858;2022-09-27T00:34:51;1.99;1.76;1.33;0.76;6.12;6.09;5.99;5.42;3.85;0.85
73616;SPS30;61913;52.312;4.858;2022-09-27T00:37:17;2.85;2.52;1.91;1.08;8.75;8.71;8.56;7.74;5.51;0.86
73616;SPS30;61913;52.312;4.858;2022-09-27T00:39:44;2.50;2.22;1.70;0.99;7.99;7.95;7.82;7.13;5.15;0.85
73616;SPS30;61913;52.312;4.858;2022-09-27T00:42:11;2.28;2.03;1.56;0.92;7.42;7.39;7.27;6.64;4.84;0.84
73616;SPS30;61913;52.312;4.858;2022-09-27T00:47:08;2.51;2.22;1.69;0.97;7.86;7.82;7.69;6.98;5.00;0.84
73616;SPS30;61913;52.312;4.858;2022-09-27T00:49:42;2.22;1.97;1.50;0.87;7.02;6.99;6.87;6.25;4.50;0.84
73616;SPS30;61913;52.312;4.858;2022-09-27T00:52:19;2.53;2.24;1.72;1.01;8.15;8.11;7.98;7.28;5.29;0.84
73616;SPS30;61913;52.312;4.858;2022-09-27T00:54:49;2.69;2.40;1.87;1.14;9.18;9.14;9.01;8.29;6.16;0.81
73616;SPS30;61913;52.312;4.858;2022-09-27T00:57:19;3.04;2.71;2.12;1.30;10.50;10.47;10.31;9.52;7.10;0.80
73616;SPS30;61913;52.312;4.858;2022-09-27T00:59:49;2.21;1.98;1.57;0.99;7.99;7.96;7.86;7.30;5.52;0.77
73616;SPS30;61913;52.312;4.858;2022-09-27T01:02:19;2.04;1.84;1.47;0.95;7.62;7.59;7.50;7.00;5.35;0.76
73616;SPS30;61913;52.312;4.858;2022-09-27T01:04:46;2.43;2.19;1.75;1.14;9.15;9.12;9.01;8.42;6.46;0.75
73616;SPS30;61913;52.312;4.858;2022-09-27T01:07:15;2.51;2.26;1.79;1.13;9.15;9.12;9.00;8.36;6.35;0.77
73616;SPS30;61913;52.312;4.858;2022-09-27T01:09:41;2.85;2.56;2.03;1.28;10.36;10.32;10.19;9.47;7.19;0.77
73616;SPS30;61913;52.312;4.858;2022-09-27T01:25:35;2.80;2.50;1.94;1.18;9.54;9.50;9.36;8.62;6.39;0.81
73616;SPS30;61913;52.312;4.858;2022-09-27T01:28:20;3.36;2.99;2.31;1.39;11.19;11.15;10.98;10.07;7.41;0.82
73616;SPS30;61913;52.312;4.858;2022-09-27T01:30:52;2.92;2.59;1.99;1.18;9.51;9.47;9.32;8.52;6.21;0.84
73616;SPS30;61913;52.312;4.858;2022-09-27T01:38:25;3.83;3.36;2.51;1.37;11.13;11.08;10.86;9.74;6.75;0.90
73616;SPS30;61913;52.312;4.858;2022-09-27T01:41:09;4.63;4.06;3.03;1.63;13.23;13.17;12.90;11.52;7.91;0.91
73616;SPS30;61913;52.312;4.858;2022-09-27T01:43:54;3.86;3.40;2.57;1.45;11.71;11.66;11.45;10.34;7.32;0.89
73616;SPS30;61913;52.312;4.858;2022-09-27T01:46:25;4.06;3.58;2.72;1.54;12.43;12.38;12.15;10.99;7.80;0.89
73616;SPS30;61913;52.312;4.858;2022-09-27T01:48:55;4.36;3.85;2.91;1.64;13.28;13.22;12.98;11.73;8.30;0.89
73616;SPS30;61913;52.312;4.858;2022-09-27T01:51:29;5.10;4.48;3.36;1.85;14.97;14.90;14.61;13.12;9.13;0.91
73616;SPS30;61913;52.312;4.858;2022-09-27T01:54:01;5.06;4.43;3.29;1.77;14.33;14.26;13.97;12.46;8.52;0.95
73616;SPS30;61913;52.312;4.858;2022-09-27T01:56:33;5.58;4.87;3.59;1.87;15.18;15.10;14.77;13.07;8.75;0.97
73616;SPS30;61913;52.312;4.858;2022-09-27T01:59:08;4.81;4.23;3.15;1.71;13.87;13.80;13.53;12.10;8.35;0.92
73616;SPS30;61913;52.312;4.858;2022-09-27T02:01:38;4.78;4.21;3.17;1.77;14.31;14.25;13.98;12.59;8.85;0.91
73616;SPS30;61913;52.312;4.858;2022-09-27T02:04:09;5.08;4.48;3.39;1.91;15.42;15.35;15.07;13.61;9.62;0.91
73616;SPS30;61913;52.312;4.858;2022-09-27T02:06:40;4.55;4.04;3.11;1.84;14.86;14.80;14.57;13.32;9.72;0.87
73616;SPS30;61913;52.312;4.858;2022-09-27T02:09:17;4.34;3.84;2.93;1.69;13.65;13.59;13.36;12.14;8.72;0.89
73616;SPS30;61913;52.312;4.858;2022-09-27T02:11:48;3.94;3.49;2.65;1.52;12.27;12.22;12.01;10.89;7.79;0.91
73616;SPS30;61913;52.312;4.858;2022-09-27T02:14:26;4.62;4.09;3.12;1.81;14.60;14.54;14.29;13.00;9.36;0.89
73616;SPS30;61913;52.312;4.858;2022-09-27T02:19:51;4.39;3.85;2.89;1.59;12.85;12.79;12.55;11.26;7.83;0.92
73616;SPS30;61913;52.312;4.858;2022-09-27T02:25:19;3.66;3.22;2.41;1.33;10.76;10.71;10.50;9.43;6.57;0.93
73616;SPS30;61913;52.312;4.858;2022-09-27T02:30:15;4.21;3.69;2.75;1.48;12.01;11.95;11.71;10.46;7.18;0.93
73616;SPS30;61913;52.312;4.858;2022-09-27T02:32:42;4.06;3.56;2.64;1.40;11.39;11.33;11.10;9.87;6.71;0.93
73616;SPS30;61913;52.312;4.858;2022-09-27T02:37:39;4.69;4.09;3.01;1.55;12.60;12.53;12.26;10.81;7.18;0.96
73616;SPS30;61913;52.312;4.858;2022-09-27T02:40:06;5.45;4.76;3.52;1.85;15.00;14.93;14.61;12.95;8.72;0.96
73616;SPS30;61913;52.312;4.858;2022-09-27T02:42:33;4.53;3.95;2.90;1.50;12.19;12.12;11.85;10.46;6.95;0.98
73616;SPS30;61913;52.312;4.858;2022-09-27T02:45:02;4.40;3.84;2.81;1.44;11.65;11.59;11.33;9.96;6.56;0.98
73616;SPS30;61913;52.312;4.858;2022-09-27T03:00:09;2.81;2.48;1.88;1.07;8.67;8.64;8.48;7.69;5.48;0.89
73616;SPS30;61913;52.312;4.858;2022-09-27T03:05:09;3.82;3.38;2.58;1.49;12.05;12.00;11.80;10.73;7.72;0.89
73616;SPS30;61913;52.312;4.858;2022-09-27T03:07:38;3.42;3.01;2.27;1.27;10.26;10.22;10.03;9.04;6.36;0.91
73616;SPS30;61913;52.312;4.858;2022-09-27T03:10:05;3.73;3.27;2.44;1.33;10.75;10.69;10.48;9.38;6.47;0.92
73616;SPS30;61913;52.312;4.858;2022-09-27T03:12:32;3.68;3.24;2.42;1.33;10.74;10.69;10.48;9.40;6.52;0.91
73616;SPS30;61913;52.312;4.858;2022-09-27T03:15:00;3.41;3.00;2.25;1.23;9.99;9.94;9.75;8.75;6.08;0.91
73616;SPS30;61913;52.312;4.858;2022-09-27T03:17:27;3.30;2.90;2.19;1.22;9.85;9.81;9.62;8.67;6.08;0.90
73616;SPS30;61913;52.312;4.858;2022-09-27T03:19:53;3.92;3.45;2.60;1.45;11.74;11.68;11.47;10.33;7.27;0.90
73616;SPS30;61913;52.312;4.858;2022-09-27T03:22:20;3.21;2.83;2.15;1.21;9.82;9.77;9.60;8.68;6.16;0.89
73616;SPS30;61913;52.312;4.858;2022-09-27T03:24:47;3.77;3.34;2.54;1.47;11.85;11.80;11.59;10.53;7.56;0.86
73616;SPS30;61913;52.312;4.858;2022-09-27T03:27:14;3.15;2.79;2.14;1.25;10.07;10.03;9.86;8.99;6.50;0.85
73616;SPS30;61913;52.312;4.858;2022-09-27T03:29:41;3.42;3.03;2.32;1.35;10.92;10.88;10.69;9.75;7.05;0.86
73616;SPS30;61913;52.312;4.858;2022-09-27T03:32:07;3.74;3.31;2.54;1.49;12.06;12.01;11.82;10.79;7.84;0.85
73616;SPS30;61913;52.312;4.858;2022-09-27T03:34:34;3.51;3.11;2.37;1.37;11.08;11.03;10.84;9.86;7.09;0.86
73616;SPS30;61913;52.312;4.858;2022-09-27T03:37:01;3.64;3.22;2.45;1.41;11.37;11.32;11.13;10.10;7.23;0.87
73616;SPS30;61913;52.312;4.858;2022-09-27T03:39:28;3.20;2.83;2.16;1.24;10.03;9.98;9.81;8.91;6.39;0.87
73616;SPS30;61913;52.312;4.858;2022-09-27T03:41:55;3.67;3.25;2.48;1.44;11.68;11.63;11.43;10.41;7.52;0.86
73616;SPS30;61913;52.312;4.858;2022-09-27T03:44:22;2.71;2.40;1.83;1.06;8.59;8.56;8.41;7.66;5.52;0.86
73616;SPS30;61913;52.312;4.858;2022-09-27T03:46:48;2.88;2.55;1.94;1.11;8.99;8.95;8.79;7.98;5.71;0.87
73616;SPS30;61913;52.312;4.858;2022-09-27T03:49:15;2.51;2.22;1.70;0.98;7.94;7.91;7.77;7.07;5.09;0.86
73616;SPS30;61913;52.312;4.858;2022-09-27T03:51:42;2.52;2.22;1.68;0.94;7.57;7.54;7.40;6.67;4.69;0.89
73616;SPS30;61913;52.312;4.858;2022-09-27T03:54:09;2.56;2.26;1.70;0.95;7.65;7.62;7.47;6.73;4.73;0.88
73616;SPS30;61913;52.312;4.858;2022-09-27T03:56:36;2.97;2.62;1.99;1.13;9.14;9.10;8.94;8.09;5.76;0.85
73616;SPS30;61913;52.312;4.858;2022-09-27T03:59:02;2.59;2.29;1.75;1.01;8.16;8.12;7.98;7.26;5.22;0.84
73616;SPS30;61913;52.312;4.858;2022-09-27T04:01:29;2.67;2.35;1.78;1.01;8.15;8.11;7.97;7.20;5.11;0.85
73616;SPS30;61913;52.312;4.858;2022-09-27T04:03:56;2.97;2.61;1.94;1.05;8.53;8.49;8.32;7.44;5.12;0.88
73616;SPS30;61913;52.312;4.858;2022-09-27T04:06:23;3.55;3.12;2.34;1.28;10.40;10.35;10.15;9.11;6.34;0.87
73616;SPS30;61913;52.312;4.858;2022-09-27T04:08:49;2.86;2.52;1.91;1.08;8.77;8.73;8.58;7.76;5.52;0.85
73616;SPS30;61913;52.312;4.858;2022-09-27T04:11:16;2.65;2.33;1.75;0.98;7.90;7.86;7.71;6.94;4.87;0.86
73616;SPS30;61913;52.312;4.858;2022-09-27T04:13:43;3.31;2.92;2.21;1.25;10.08;10.04;9.86;8.91;6.31;0.85
73616;SPS30;61913;52.312;4.858;2022-09-27T04:16:09;2.99;2.63;1.98;1.10;8.94;8.90;8.73;7.86;5.52;0.86
73616;SPS30;61913;52.312;4.858;2022-09-27T04:18:36;2.74;2.41;1.81;0.99;8.02;7.98;7.83;7.02;4.88;0.88
73616;SPS30;61913;52.312;4.858;2022-09-27T04:21:03;2.75;2.41;1.79;0.97;7.83;7.79;7.63;6.81;4.67;0.90
73616;SPS30;61913;52.312;4.858;2022-09-27T04:23:29;2.49;2.18;1.62;0.87;7.04;7.01;6.86;6.12;4.18;0.91
73616;SPS30;61913;52.312;4.858;2022-09-27T04:25:56;2.87;2.53;1.90;1.06;8.59;8.55;8.39;7.56;5.31;0.87
73616;SPS30;61913;52.312;4.858;2022-09-27T04:28:23;2.38;2.11;1.62;0.94;7.62;7.59;7.47;6.81;4.93;0.84
73616;SPS30;61913;52.312;4.858;2022-09-27T04:30:49;2.37;2.10;1.61;0.93;7.53;7.50;7.37;6.71;4.84;0.85
73616;SPS30;61913;52.312;4.858;2022-09-27T04:33:16;2.60;2.30;1.75;1.01;8.16;8.13;7.99;7.26;5.22;0.87
73616;SPS30;61913;52.312;4.858;2022-09-27T04:35:43;2.73;2.42;1.83;1.05;8.46;8.43;8.28;7.50;5.35;0.88
73616;SPS30;61913;52.312;4.858;2022-09-27T04:38:28;2.74;2.42;1.83;1.03;8.37;8.33;8.18;7.40;5.25;0.88
73616;SPS30;61913;52.312;4.858;2022-09-27T04:40:54;2.74;2.43;1.86;1.09;8.81;8.77;8.62;7.87;5.70;0.85
73616;SPS30;61913;52.312;4.858;2022-09-27T04:43:21;2.35;2.09;1.62;0.98;7.91;7.88;7.76;7.14;5.27;0.82
73616;SPS30;61913;52.312;4.858;2022-09-27T04:45:48;2.42;2.16;1.69;1.04;8.36;8.33;8.21;7.58;5.65;0.81
73616;SPS30;61913;52.312;4.858;2022-09-27T04:48:15;2.30;2.05;1.61;1.00;8.04;8.01;7.90;7.30;5.47;0.80
73616;SPS30;61913;52.312;4.858;2022-09-27T04:50:42;2.32;2.08;1.64;1.04;8.36;8.33;8.22;7.64;5.78;0.78
73616;SPS30;61913;52.312;4.858;2022-09-27T04:53:15;2.06;1.85;1.48;0.96;7.71;7.68;7.59;7.08;5.43;0.76
73616;SPS30;61913;52.312;4.858;2022-09-27T04:55:45;2.38;2.15;1.74;1.15;9.28;9.26;9.15;8.59;6.67;0.74
73616;SPS30;61913;52.312;4.858;2022-09-27T04:58:12;2.13;1.92;1.53;1.00;8.02;8.00;7.90;7.38;5.67;0.75
73616;SPS30;61913;52.312;4.858;2022-09-27T05:00:39;2.04;1.83;1.45;0.92;7.45;7.43;7.33;6.83;5.19;0.77
73616;SPS30;61913;52.312;4.858;2022-09-27T05:03:08;1.86;1.67;1.32;0.84;6.74;6.71;6.62;6.16;4.67;0.77
73616;SPS30;61913;52.312;4.858;2022-09-27T05:05:35;2.38;2.13;1.68;1.05;8.45;8.42;8.31;7.70;5.80;0.78
73616;SPS30;61913;52.312;4.858;2022-09-27T05:08:01;2.18;1.94;1.52;0.94;7.55;7.53;7.42;6.85;5.12;0.80
73616;SPS30;61913;52.312;4.858;2022-09-27T05:10:28;1.88;1.68;1.31;0.80;6.48;6.46;6.37;5.87;4.37;0.81
73616;SPS30;61913;52.312;4.858;2022-09-27T05:12:55;1.98;1.77;1.38;0.84;6.78;6.76;6.65;6.13;4.55;0.82
73616;SPS30;61913;52.312;4.858;2022-09-27T05:15:22;2.30;2.05;1.60;0.98;7.93;7.91;7.79;7.19;5.35;0.81
73616;SPS30;61913;52.312;4.858;2022-09-27T05:17:51;2.13;1.91;1.51;0.96;7.76;7.73;7.63;7.10;5.39;0.80
73616;SPS30;61913;52.312;4.858;2022-09-27T05:20:19;1.86;1.68;1.34;0.87;7.05;7.03;6.94;6.49;4.99;0.79
73616;SPS30;61913;52.312;4.858;2022-09-27T05:22:46;1.67;1.51;1.22;0.82;6.56;6.55;6.47;6.08;4.73;0.77
73616;SPS30;61913;52.312;4.858;2022-09-27T05:25:12;2.03;1.84;1.49;0.99;7.98;7.96;7.87;7.40;5.75;0.77
73616;SPS30;61913;52.312;4.858;2022-09-27T05:27:39;1.55;1.41;1.15;0.78;6.27;6.25;6.18;5.83;4.57;0.76
73616;SPS30;61913;52.312;4.858;2022-09-27T05:30:06;1.80;1.64;1.36;0.94;7.55;7.53;7.46;7.07;5.59;0.74
73616;SPS30;61913;52.312;4.858;2022-09-27T05:32:34;2.71;2.52;2.18;1.65;13.24;13.21;13.12;12.64;10.37;0.65
73616;SPS30;61913;52.312;4.858;2022-09-27T05:35:01;1.82;1.71;1.51;1.19;9.52;9.50;9.45;9.16;7.62;0.66
73616;SPS30;61913;52.312;4.858;2022-09-27T05:37:27;1.77;1.66;1.46;1.14;9.10;9.09;9.04;8.75;7.25;0.68
73616;SPS30;61913;52.312;4.858;2022-09-27T05:39:56;1.56;1.44;1.23;0.91;7.27;7.25;7.20;6.90;5.61;0.71
73616;SPS30;61913;52.312;4.858;2022-09-27T05:42:23;1.84;1.69;1.41;1.01;8.12;8.10;8.03;7.65;6.14;0.73
73616;SPS30;61913;52.312;4.858;2022-09-27T05:44:50;1.82;1.66;1.38;0.98;7.86;7.84;7.77;7.39;5.89;0.74
73616;SPS30;61913;52.312;4.858;2022-09-27T05:47:18;1.60;1.47;1.22;0.86;6.88;6.87;6.80;6.46;5.14;0.74
73616;SPS30;61913;52.312;4.858;2022-09-27T05:49:44;1.72;1.57;1.31;0.92;7.36;7.34;7.27;6.91;5.49;0.74
73616;SPS30;61913;52.312;4.858;2022-09-27T05:52:11;1.82;1.66;1.39;0.98;7.90;7.89;7.81;7.44;5.94;0.72
73616;SPS30;61913;52.312;4.858;2022-09-27T05:54:42;1.68;1.53;1.27;0.88;7.10;7.08;7.01;6.65;5.27;0.74
73616;SPS30;61913;52.312;4.858;2022-09-27T05:57:09;1.95;1.78;1.48;1.05;8.44;8.42;8.34;7.93;6.33;0.73
73616;SPS30;61913;52.312;4.858;2022-09-27T05:59:35;1.99;1.83;1.54;1.11;8.95;8.93;8.85;8.45;6.81;0.70
73616;SPS30;61913;52.312;4.858;2022-09-27T06:02:02;2.21;2.04;1.71;1.23;9.90;9.88;9.80;9.35;7.52;0.70
73616;SPS30;61913;52.312;4.858;2022-09-27T06:04:29;2.17;2.00;1.68;1.21;9.72;9.70;9.61;9.18;7.39;0.70
73616;SPS30;61913;52.312;4.858;2022-09-27T06:06:56;1.94;1.78;1.49;1.07;8.59;8.58;8.50;8.10;6.50;0.72
73616;SPS30;61913;52.312;4.858;2022-09-27T06:09:24;2.00;1.82;1.49;1.02;8.17;8.15;8.06;7.61;5.98;0.76
73616;SPS30;61913;52.312;4.858;2022-09-27T06:11:52;2.17;1.96;1.56;1.01;8.15;8.12;8.02;7.49;5.74;0.80
73616;SPS30;61913;52.312;4.858;2022-09-27T06:14:19;2.43;2.17;1.71;1.06;8.58;8.55;8.43;7.80;5.86;0.81
73616;SPS30;61913;52.312;4.858;2022-09-27T06:16:46;2.11;1.90;1.51;0.97;7.82;7.80;7.70;7.17;5.48;0.78
73616;SPS30;61913;52.312;4.858;2022-09-27T06:19:13;1.93;1.74;1.40;0.92;7.38;7.36;7.27;6.81;5.25;0.76
73616;SPS30;61913;52.312;4.858;2022-09-27T06:21:40;2.08;1.88;1.52;1.00;8.06;8.04;7.94;7.45;5.76;0.76
73616;SPS30;61913;52.312;4.858;2022-09-27T06:24:07;1.95;1.76;1.42;0.93;7.49;7.47;7.38;6.91;5.33;0.76
73616;SPS30;61913;52.312;4.858;2022-09-27T06:26:33;1.96;1.77;1.42;0.94;7.53;7.51;7.42;6.95;5.37;0.76
73616;SPS30;61913;52.312;4.858;2022-09-27T06:29:00;2.69;2.43;1.95;1.29;10.35;10.32;10.20;9.56;7.39;0.77
73616;SPS30;61913;52.312;4.858;2022-09-27T06:31:27;2.58;2.33;1.88;1.24;9.95;9.92;9.80;9.19;7.10;0.77
73616;SPS30;61913;52.312;4.858;2022-09-27T06:33:54;3.55;3.21;2.61;1.75;14.07;14.03;13.87;13.05;10.17;0.75
73616;SPS30;61913;52.312;4.858;2022-09-27T06:36:20;3.36;3.02;2.42;1.58;12.69;12.65;12.50;11.68;8.98;0.78
73616;SPS30;61913;52.312;4.858;2022-09-27T06:38:47;2.92;2.62;2.08;1.33;10.72;10.69;10.55;9.83;7.49;0.79
73616;SPS30;61913;52.312;4.858;2022-09-27T06:41:14;2.90;2.61;2.09;1.35;10.86;10.82;10.69;9.98;7.64;0.78
73616;SPS30;61913;52.312;4.858;2022-09-27T06:43:41;2.65;2.38;1.90;1.22;9.81;9.77;9.65;8.99;6.86;0.78
73616;SPS30;61913;52.312;4.858;2022-09-27T06:46:08;2.78;2.50;2.00;1.29;10.39;10.36;10.23;9.55;7.31;0.78
73616;SPS30;61913;52.312;4.858;2022-09-27T06:48:35;2.41;2.17;1.75;1.14;9.22;9.19;9.08;8.51;6.56;0.77
73616;SPS30;61913;52.312;4.858;2022-09-27T06:51:04;2.05;1.84;1.46;0.93;7.47;7.45;7.35;6.84;5.20;0.78
73616;SPS30;61913;52.312;4.858;2022-09-27T06:53:31;2.13;1.91;1.50;0.94;7.60;7.58;7.47;6.93;5.22;0.80
73616;SPS30;61913;52.312;4.858;2022-09-27T06:55:58;2.22;1.98;1.56;0.97;7.86;7.83;7.73;7.16;5.38;0.80
73616;SPS30;61913;52.312;4.858;2022-09-27T06:58:27;2.30;2.06;1.61;0.98;7.94;7.92;7.80;7.20;5.36;0.82
73616;SPS30;61913;52.312;4.858;2022-09-27T07:01:12;2.25;2.01;1.57;0.96;7.76;7.73;7.62;7.03;5.23;0.82
73616;SPS30;61913;52.312;4.858;2022-09-27T07:03:39;1.95;1.74;1.35;0.83;6.69;6.67;6.57;6.06;4.51;0.82
73616;SPS30;61913;52.312;4.858;2022-09-27T07:06:27;2.39;2.14;1.69;1.06;8.56;8.53;8.41;7.80;5.89;0.79
73616;SPS30;61913;52.312;4.858;2022-09-27T07:08:53;2.22;1.99;1.58;1.00;8.06;8.03;7.93;7.37;5.59;0.79
73616;SPS30;61913;52.312;4.858;2022-09-27T07:11:20;2.41;2.15;1.68;1.03;8.35;8.32;8.20;7.57;5.64;0.82
73616;SPS30;61913;52.312;4.858;2022-09-27T07:13:49;2.02;1.80;1.40;0.85;6.87;6.85;6.74;6.21;4.60;0.82
73616;SPS30;61913;52.312;4.858;2022-09-27T07:16:17;2.10;1.89;1.49;0.95;7.65;7.62;7.52;6.99;5.31;0.79
73616;SPS30;61913;52.312;4.858;2022-09-27T07:18:46;1.65;1.48;1.19;0.77;6.17;6.15;6.07;5.67;4.34;0.77
73616;SPS30;61913;52.312;4.858;2022-09-27T07:21:13;1.70;1.53;1.23;0.80;6.44;6.42;6.34;5.93;4.56;0.77
73616;SPS30;61913;52.312;4.858;2022-09-27T07:23:41;2.03;1.83;1.46;0.95;7.67;7.65;7.55;7.06;5.42;0.76
73616;SPS30;61913;52.312;4.858;2022-09-27T07:26:08;1.86;1.67;1.33;0.86;6.91;6.89;6.80;6.34;4.85;0.77
73616;SPS30;61913;52.312;4.858;2022-09-27T07:28:36;1.51;1.37;1.10;0.72;5.78;5.76;5.69;5.33;4.11;0.76
73616;SPS30;61913;52.312;4.858;2022-09-27T07:31:03;1.88;1.69;1.36;0.88;7.09;7.07;6.98;6.52;5.01;0.77
73616;SPS30;61913;52.312;4.858;2022-09-27T07:33:30;1.69;1.52;1.21;0.78;6.26;6.24;6.16;5.75;4.39;0.78
73616;SPS30;61913;52.312;4.858;2022-09-27T07:35:57;2.18;1.97;1.58;1.03;8.28;8.25;8.15;7.63;5.87;0.76
73616;SPS30;61913;52.312;4.858;2022-09-27T07:38:23;1.71;1.55;1.26;0.84;6.77;6.75;6.68;6.28;4.89;0.74
73616;SPS30;61913;52.312;4.858;2022-09-27T07:40:50;2.08;1.89;1.54;1.04;8.34;8.32;8.23;7.75;6.06;0.74
73616;SPS30;61913;52.312;4.858;2022-09-27T07:43:17;2.40;2.17;1.75;1.15;9.28;9.25;9.14;8.57;6.63;0.76
73616;SPS30;61913;52.312;4.858;2022-09-27T07:45:45;2.03;1.83;1.46;0.95;7.64;7.61;7.52;7.03;5.39;0.78
73616;SPS30;61913;52.312;4.858;2022-09-27T07:48:13;2.25;2.02;1.61;1.03;8.31;8.29;8.18;7.62;5.82;0.78
73616;SPS30;61913;52.312;4.858;2022-09-27T07:50:40;2.35;2.12;1.70;1.10;8.90;8.87;8.76;8.19;6.29;0.77
73616;SPS30;61913;52.312;4.858;2022-09-27T07:53:07;2.25;2.03;1.63;1.08;8.67;8.64;8.54;8.00;6.19;0.76
73616;SPS30;61913;52.312;4.858;2022-09-27T07:55:38;2.23;2.02;1.63;1.09;8.75;8.72;8.62;8.10;6.29;0.76
73616;SPS30;61913;52.312;4.858;2022-09-27T07:58:09;2.19;1.97;1.59;1.04;8.39;8.36;8.26;7.74;5.97;0.76
73616;SPS30;61913;52.312;4.858;2022-09-27T08:00:37;2.14;1.93;1.56;1.03;8.26;8.23;8.14;7.63;5.90;0.77
73616;SPS30;61913;52.312;4.858;2022-09-27T08:03:05;1.97;1.78;1.41;0.91;7.31;7.29;7.19;6.70;5.12;0.79
73616;SPS30;61913;52.312;4.858;2022-09-27T08:05:33;1.91;1.71;1.35;0.85;6.89;6.87;6.78;6.29;4.76;0.80
73616;SPS30;61913;52.312;4.858;2022-09-27T08:08:01;2.12;1.89;1.48;0.90;7.29;7.26;7.15;6.59;4.91;0.83
73616;SPS30;61913;52.312;4.858;2022-09-27T08:10:28;2.05;1.83;1.42;0.86;6.91;6.89;6.78;6.23;4.61;0.82
73616;SPS30;61913;52.312;4.858;2022-09-27T08:12:57;2.13;1.90;1.49;0.92;7.40;7.37;7.27;6.71;5.02;0.80
73616;SPS30;61913;52.312;4.858;2022-09-27T08:15:24;1.75;1.56;1.22;0.75;6.01;5.99;5.90;5.44;4.05;0.81
73616;SPS30;61913;52.312;4.858;2022-09-27T08:17:51;1.75;1.55;1.20;0.72;5.82;5.79;5.70;5.23;3.85;0.82
73616;SPS30;61913;52.312;4.858;2022-09-27T08:20:18;2.04;1.81;1.39;0.81;6.58;6.56;6.45;5.88;4.27;0.85
73616;SPS30;61913;52.312;4.858;2022-09-27T08:22:45;2.09;1.85;1.41;0.82;6.66;6.63;6.52;5.94;4.30;0.86
73616;SPS30;61913;52.312;4.858;2022-09-27T08:25:11;1.78;1.58;1.21;0.71;5.74;5.72;5.62;5.13;3.72;0.86
73616;SPS30;61913;52.312;4.858;2022-09-27T08:27:40;2.20;1.95;1.49;0.87;7.02;6.99;6.87;6.26;4.52;0.86
73616;SPS30;61913;52.312;4.858;2022-09-27T08:30:07;2.29;2.03;1.56;0.91;7.39;7.36;7.24;6.61;4.80;0.84
73616;SPS30;61913;52.312;4.858;2022-09-27T08:32:33;2.33;2.06;1.57;0.90;7.32;7.28;7.16;6.50;4.67;0.86
73616;SPS30;61913;52.312;4.858;2022-09-27T08:35:00;1.98;1.75;1.34;0.78;6.28;6.25;6.15;5.60;4.04;0.85
73616;SPS30;61913;52.312;4.858;2022-09-27T08:37:27;2.52;2.23;1.71;1.00;8.08;8.04;7.91;7.21;5.23;0.85
73616;SPS30;61913;52.312;4.858;2022-09-27T08:39:53;2.72;2.41;1.85;1.09;8.77;8.74;8.59;7.84;5.69;0.85
73616;SPS30;61913;52.312;4.858;2022-09-27T08:45:03;2.51;2.24;1.74;1.06;8.55;8.52;8.39;7.73;5.73;0.84
73616;SPS30;61913;52.312;4.858;2022-09-27T08:47:35;2.56;2.29;1.78;1.09;8.81;8.78;8.65;7.97;5.93;0.84
73616;SPS30;61913;52.312;4.858;2022-09-27T08:52:34;3.26;2.92;2.31;1.45;11.72;11.68;11.52;10.69;8.08;0.81
73616;SPS30;61913;52.312;4.858;2022-09-27T08:55:13;2.79;2.52;2.03;1.34;10.83;10.80;10.67;10.01;7.76;0.77
73616;SPS30;61913;52.312;4.858;2022-09-27T08:57:47;2.37;2.13;1.71;1.12;9.01;8.98;8.87;8.30;6.39;0.79
73616;SPS30;61913;52.312;4.858;2022-09-27T09:00:18;2.76;2.47;1.96;1.25;10.06;10.03;9.90;9.21;7.00;0.81
73616;SPS30;61913;52.312;4.858;2022-09-27T09:02:44;2.94;2.64;2.09;1.32;10.65;10.62;10.47;9.73;7.37;0.80
73616;SPS30;61913;52.312;4.858;2022-09-27T09:05:13;2.91;2.62;2.09;1.34;10.83;10.79;10.65;9.94;7.60;0.78
73616;SPS30;61913;52.312;4.858;2022-09-27T09:10:22;2.40;2.18;1.77;1.19;9.59;9.57;9.46;8.91;6.96;0.75
73616;SPS30;61913;52.312;4.858;2022-09-27T09:13:19;2.72;2.46;1.98;1.31;10.53;10.50;10.37;9.73;7.53;0.77
73616;SPS30;61913;52.312;4.858;2022-09-27T09:31:22;2.09;1.85;1.41;0.81;6.54;6.51;6.40;5.81;4.17;0.87
73616;SPS30;61913;52.312;4.858;2022-09-27T09:36:33;1.97;1.74;1.33;0.78;6.27;6.25;6.14;5.60;4.05;0.84
73616;SPS30;61913;52.312;4.858;2022-09-27T09:44:20;1.44;1.27;0.97;0.56;4.56;4.54;4.46;4.06;2.93;0.84
73616;SPS30;61913;52.312;4.858;2022-09-27T09:46:51;1.64;1.45;1.10;0.63;5.11;5.08;5.00;4.53;3.24;0.85
73616;SPS30;61913;52.312;4.858;2022-09-27T09:49:41;2.31;2.03;1.54;0.87;7.05;7.02;6.90;6.24;4.43;0.86
73616;SPS30;61913;52.312;4.858;2022-09-27T09:52:18;1.88;1.66;1.26;0.72;5.83;5.81;5.70;5.17;3.69;0.85
73616;SPS30;61913;52.312;4.858;2022-09-27T09:54:49;1.74;1.54;1.17;0.68;5.46;5.44;5.35;4.86;3.49;0.85
73616;SPS30;61913;52.312;4.858;2022-09-27T09:57:27;2.32;2.05;1.56;0.89;7.22;7.19;7.07;6.41;4.59;0.86
73616;SPS30;61913;52.312;4.858;2022-09-27T10:00:01;2.09;1.85;1.40;0.79;6.40;6.38;6.26;5.66;4.02;0.86
73616;SPS30;61913;52.312;4.858;2022-09-27T10:02:31;2.14;1.89;1.44;0.83;6.74;6.72;6.60;6.00;4.32;0.84
73616;SPS30;61913;52.312;4.858;2022-09-27T10:05:00;2.05;1.83;1.43;0.87;6.99;6.97;6.86;6.32;4.68;0.81
73616;SPS30;61913;52.312;4.858;2022-09-27T10:07:33;2.05;1.83;1.43;0.88;7.11;7.08;6.98;6.45;4.81;0.81
73616;SPS30;61913;52.312;4.858;2022-09-27T10:10:03;1.90;1.70;1.32;0.81;6.52;6.50;6.40;5.90;4.38;0.82
73616;SPS30;61913;52.312;4.858;2022-09-27T10:12:31;1.98;1.76;1.38;0.84;6.78;6.75;6.65;6.13;4.56;0.83
73616;SPS30;61913;52.312;4.858;2022-09-27T10:14:58;2.02;1.80;1.41;0.87;7.00;6.97;6.87;6.34;4.74;0.83
73616;SPS30;61913;52.312;4.858;2022-09-27T10:17:31;2.54;2.27;1.78;1.10;8.88;8.85;8.73;8.07;6.04;0.83
73616;SPS30;61913;52.312;4.858;2022-09-27T10:20:00;2.56;2.30;1.81;1.14;9.18;9.15;9.03;8.38;6.32;0.81
73616;SPS30;61913;52.312;4.858;2022-09-27T10:22:29;2.10;1.89;1.49;0.93;7.53;7.51;7.40;6.87;5.18;0.81
73616;SPS30;61913;52.312;4.858;2022-09-27T10:25:05;1.83;1.65;1.32;0.85;6.88;6.85;6.77;6.32;4.84;0.80
73616;SPS30;61913;52.312;4.858;2022-09-27T10:27:37;1.93;1.73;1.37;0.87;7.04;7.02;6.93;6.44;4.90;0.82
73616;SPS30;61913;52.312;4.858;2022-09-27T10:30:19;2.35;2.11;1.68;1.08;8.74;8.71;8.60;8.02;6.14;0.80
73616;SPS30;61913;52.312;4.858;2022-09-27T10:32:56;2.22;2.00;1.61;1.06;8.52;8.49;8.39;7.86;6.07;0.78
73616;SPS30;61913;52.312;4.858;2022-09-27T10:40:40;2.26;2.05;1.66;1.11;8.90;8.87;8.77;8.24;6.41;0.76
73616;SPS30;61913;52.312;4.858;2022-09-27T10:48:34;1.96;1.76;1.41;0.92;7.43;7.41;7.32;6.85;5.27;0.76
73616;SPS30;61913;52.312;4.858;2022-09-27T10:51:04;1.99;1.80;1.45;0.96;7.76;7.74;7.65;7.18;5.56;0.74
73616;SPS30;61913;52.312;4.858;2022-09-27T10:53:33;2.45;2.20;1.75;1.13;9.11;9.08;8.97;8.37;6.40;0.77
73616;SPS30;61913;52.312;4.858;2022-09-27T10:56:00;2.52;2.26;1.78;1.12;9.03;9.00;8.87;8.23;6.21;0.79
73616;SPS30;61913;52.312;4.858;2022-09-27T10:58:31;2.50;2.25;1.79;1.15;9.25;9.22;9.10;8.49;6.48;0.78
73616;SPS30;61913;52.312;4.858;2022-09-27T11:00:59;2.79;2.52;2.02;1.32;10.61;10.58;10.45;9.78;7.52;0.77
73616;SPS30;61913;52.312;4.858;2022-09-27T11:03:29;2.77;2.50;2.01;1.31;10.56;10.53;10.40;9.73;7.50;0.76
73616;SPS30;61913;52.312;4.858;2022-09-27T11:05:58;2.44;2.20;1.77;1.16;9.38;9.35;9.24;8.66;6.69;0.75
73616;SPS30;61913;52.312;4.858;2022-09-27T11:08:29;2.08;1.87;1.50;0.98;7.86;7.84;7.74;7.24;5.56;0.76